sensor_id;sensor_type;location;lat;lon;timestamp;pressure;altitude;pressure_sealevel;temperature;humidity
70437;BME280;57877;39.750;-104.894;2023-12-29T00:00:07;84246.71;;;5.08;19.86
70437;BME280;57877;39.750;-104.894;2023-12-29T00:02:31;84249.16;;;5.01;19.98
70437;BME280;57877;39.750;-104.894;2023-12-29T00:04:56;84247.19;;;4.61;20.32
70437;BME280;57877;39.750;-104.894;2023-12-29T00:07:21;84250.57;;;4.56;20.77
70437;BME280;57877;39.750;-104.894;2023-12-29T00:09:46;84252.61;;;4.58;21.02
70437;BME280;57877;39.750;-104.894;2023-12-29T00:12:11;84248.35;;;4.34;21.27
70437;BME280;57877;39.750;-104.894;2023-12-29T00:14:38;84249.71;;;4.14;21.46
70437;BME280;57877;39.750;-104.894;2023-12-29T00:17:03;84252.22;;;3.94;21.87
70437;BME280;57877;39.750;-104.894;2023-12-29T00:19:27;84251.57;;;3.77;21.97
70437;BME280;57877;39.750;-104.894;2023-12-29T00:21:52;84254.01;;;3.95;22.08
70437;BME280;57877;39.750;-104.894;2023-12-29T00:24:16;84255.42;;;3.52;22.27
70437;BME280;57877;39.750;-104.894;2023-12-29T00:26:42;84256.99;;;3.26;22.58
70437;BME280;57877;39.750;-104.894;2023-12-29T00:29:07;84258.39;;;3.62;22.33
70437;BME280;57877;39.750;-104.894;2023-12-29T00:31:32;84259.44;;;3.58;22.26
70437;BME280;57877;39.750;-104.894;2023-12-29T00:33:57;84258.78;;;3.52;22.39
70437;BME280;57877;39.750;-104.894;2023-12-29T00:36:22;84262.64;;;3.25;22.46
70437;BME280;57877;39.750;-104.894;2023-12-29T00:38:47;84266.07;;;3.20;22.61
70437;BME280;57877;39.750;-104.894;2023-12-29T00:41:17;84268.08;;;3.07;23.42
70437;BME280;57877;39.750;-104.894;2023-12-29T00:43:37;84272.88;;;3.21;23.70
70437;BME280;57877;39.750;-104.894;2023-12-29T00:46:02;84273.10;;;3.27;23.85
70437;BME280;57877;39.750;-104.894;2023-12-29T00:48:27;84275.76;;;2.96;23.87
70437;BME280;57877;39.750;-104.894;2023-12-29T00:50:52;84279.16;;;3.70;23.81
70437;BME280;57877;39.750;-104.894;2023-12-29T00:53:17;84278.85;;;2.77;24.16
70437;BME280;57877;39.750;-104.894;2023-12-29T00:55:42;84282.63;;;2.91;25.05
70437;BME280;57877;39.750;-104.894;2023-12-29T00:58:07;84281.68;;;2.61;25.15
70437;BME280;57877;39.750;-104.894;2023-12-29T01:00:32;84281.89;;;2.50;24.95
70437;BME280;57877;39.750;-104.894;2023-12-29T01:02:57;84282.55;;;2.86;24.70
70437;BME280;57877;39.750;-104.894;2023-12-29T01:05:22;84286.35;;;2.95;25.86
70437;BME280;57877;39.750;-104.894;2023-12-29T01:07:48;84287.59;;;2.33;26.32
70437;BME280;57877;39.750;-104.894;2023-12-29T01:10:14;84287.12;;;2.75;26.63
70437;BME280;57877;39.750;-104.894;2023-12-29T01:12:38;84291.75;;;2.55;26.09
70437;BME280;57877;39.750;-104.894;2023-12-29T01:15:04;84293.82;;;2.00;26.00
70437;BME280;57877;39.750;-104.894;2023-12-29T01:17:29;84294.59;;;1.96;26.05
70437;BME280;57877;39.750;-104.894;2023-12-29T01:19:54;84295.25;;;2.23;25.80
70437;BME280;57877;39.750;-104.894;2023-12-29T01:22:19;84294.07;;;2.15;25.37
70437;BME280;57877;39.750;-104.894;2023-12-29T01:24:44;84296.70;;;2.20;26.34
70437;BME280;57877;39.750;-104.894;2023-12-29T01:27:09;84299.80;;;2.23;26.79
70437;BME280;57877;39.750;-104.894;2023-12-29T01:29:34;84297.17;;;2.11;27.80
70437;BME280;57877;39.750;-104.894;2023-12-29T01:31:59;84297.58;;;2.03;27.87
70437;BME280;57877;39.750;-104.894;2023-12-29T01:34:24;84301.59;;;1.89;27.82
70437;BME280;57877;39.750;-104.894;2023-12-29T01:36:49;84302.77;;;1.56;28.00
70437;BME280;57877;39.750;-104.894;2023-12-29T01:39:14;84308.09;;;1.81;27.57
70437;BME280;57877;39.750;-104.894;2023-12-29T01:41:39;84310.30;;;1.74;27.98
70437;BME280;57877;39.750;-104.894;2023-12-29T01:44:17;84310.81;;;1.84;27.64
70437;BME280;57877;39.750;-104.894;2023-12-29T01:46:31;84311.20;;;1.77;27.16
70437;BME280;57877;39.750;-104.894;2023-12-29T01:48:55;84311.06;;;1.50;26.96
70437;BME280;57877;39.750;-104.894;2023-12-29T01:51:21;84310.22;;;1.35;26.51
70437;BME280;57877;39.750;-104.894;2023-12-29T01:53:45;84311.00;;;1.59;26.57
70437;BME280;57877;39.750;-104.894;2023-12-29T01:56:10;84309.91;;;1.58;26.11
70437;BME280;57877;39.750;-104.894;2023-12-29T01:58:35;84308.17;;;1.80;25.84
70437;BME280;57877;39.750;-104.894;2023-12-29T02:01:01;84307.52;;;1.24;26.02
70437;BME280;57877;39.750;-104.894;2023-12-29T02:03:25;84304.72;;;1.32;26.21
70437;BME280;57877;39.750;-104.894;2023-12-29T02:05:50;84307.74;;;1.80;25.79
70437;BME280;57877;39.750;-104.894;2023-12-29T02:08:16;84306.90;;;0.92;25.89
70437;BME280;57877;39.750;-104.894;2023-12-29T02:10:41;84307.20;;;1.30;25.47
70437;BME280;57877;39.750;-104.894;2023-12-29T02:13:05;84305.35;;;1.63;25.57
70437;BME280;57877;39.750;-104.894;2023-12-29T02:15:31;84307.02;;;1.46;25.59
70437;BME280;57877;39.750;-104.894;2023-12-29T02:18:00;84304.66;;;1.30;25.70
70437;BME280;57877;39.750;-104.894;2023-12-29T02:20:21;84307.08;;;1.56;25.42
70437;BME280;57877;39.750;-104.894;2023-12-29T02:22:46;84307.76;;;1.49;25.32
70437;BME280;57877;39.750;-104.894;2023-12-29T02:25:11;84309.03;;;1.35;25.42
70437;BME280;57877;39.750;-104.894;2023-12-29T02:27:43;84310.56;;;1.03;25.64
70437;BME280;57877;39.750;-104.894;2023-12-29T02:30:09;84307.79;;;1.05;25.76
70437;BME280;57877;39.750;-104.894;2023-12-29T02:32:28;84307.98;;;0.67;26.28
70437;BME280;57877;39.750;-104.894;2023-12-29T02:34:52;84304.59;;;0.97;25.93
70437;BME280;57877;39.750;-104.894;2023-12-29T02:37:16;84304.84;;;0.86;25.93
70437;BME280;57877;39.750;-104.894;2023-12-29T02:39:41;84305.33;;;0.86;26.29
70437;BME280;57877;39.750;-104.894;2023-12-29T02:42:06;84307.77;;;1.10;26.00
70437;BME280;57877;39.750;-104.894;2023-12-29T02:44:31;84305.49;;;0.74;26.11
70437;BME280;57877;39.750;-104.894;2023-12-29T02:46:57;84306.27;;;0.97;26.22
70437;BME280;57877;39.750;-104.894;2023-12-29T02:49:22;84308.92;;;1.01;26.14
70437;BME280;57877;39.750;-104.894;2023-12-29T02:51:47;84305.92;;;0.30;26.48
70437;BME280;57877;39.750;-104.894;2023-12-29T02:54:12;84303.99;;;0.89;26.29
70437;BME280;57877;39.750;-104.894;2023-12-29T02:56:37;84303.07;;;1.04;26.07
70437;BME280;57877;39.750;-104.894;2023-12-29T02:59:02;84301.11;;;0.54;26.15
70437;BME280;57877;39.750;-104.894;2023-12-29T03:01:27;84302.95;;;0.72;26.11
70437;BME280;57877;39.750;-104.894;2023-12-29T03:03:52;84302.30;;;0.26;26.50
70437;BME280;57877;39.750;-104.894;2023-12-29T03:06:17;84304.50;;;0.63;26.21
70437;BME280;57877;39.750;-104.894;2023-12-29T03:08:42;84301.38;;;0.51;26.30
70437;BME280;57877;39.750;-104.894;2023-12-29T03:11:07;84304.11;;;0.46;26.50
70437;BME280;57877;39.750;-104.894;2023-12-29T03:13:33;84308.22;;;0.72;26.21
70437;BME280;57877;39.750;-104.894;2023-12-29T03:15:58;84304.41;;;0.58;26.44
70437;BME280;57877;39.750;-104.894;2023-12-29T03:18:23;84302.91;;;0.82;26.33
70437;BME280;57877;39.750;-104.894;2023-12-29T03:20:48;84304.09;;;0.27;26.50
70437;BME280;57877;39.750;-104.894;2023-12-29T03:23:13;84301.23;;;-0.15;26.67
70437;BME280;57877;39.750;-104.894;2023-12-29T03:25:38;84302.43;;;0.34;26.47
70437;BME280;57877;39.750;-104.894;2023-12-29T03:28:04;84301.37;;;0.46;26.30
70437;BME280;57877;39.750;-104.894;2023-12-29T03:30:28;84303.04;;;0.50;26.50
70437;BME280;57877;39.750;-104.894;2023-12-29T03:32:53;84306.02;;;-0.12;26.76
70437;BME280;57877;39.750;-104.894;2023-12-29T03:35:18;84305.35;;;0.16;26.56
70437;BME280;57877;39.750;-104.894;2023-12-29T03:37:43;84305.20;;;0.49;26.57
70437;BME280;57877;39.750;-104.894;2023-12-29T03:40:09;84304.42;;;0.42;26.24
70437;BME280;57877;39.750;-104.894;2023-12-29T03:42:34;84306.54;;;0.34;26.27
70437;BME280;57877;39.750;-104.894;2023-12-29T03:44:59;84305.37;;;0.43;26.45
70437;BME280;57877;39.750;-104.894;2023-12-29T03:47:24;84307.29;;;0.39;26.55
70437;BME280;57877;39.750;-104.894;2023-12-29T03:49:49;84302.96;;;-0.27;26.66
70437;BME280;57877;39.750;-104.894;2023-12-29T03:52:14;84304.92;;;0.47;26.65
70437;BME280;57877;39.750;-104.894;2023-12-29T03:54:39;84303.90;;;0.27;26.94
70437;BME280;57877;39.750;-104.894;2023-12-29T03:57:04;84306.16;;;-0.01;27.17
70437;BME280;57877;39.750;-104.894;2023-12-29T03:59:29;84306.97;;;0.41;27.71
70437;BME280;57877;39.750;-104.894;2023-12-29T04:01:54;84308.94;;;0.29;27.52
70437;BME280;57877;39.750;-104.894;2023-12-29T04:04:19;84308.04;;;0.27;27.99
70437;BME280;57877;39.750;-104.894;2023-12-29T04:06:45;84310.88;;;0.03;27.82
70437;BME280;57877;39.750;-104.894;2023-12-29T04:09:10;84308.55;;;-0.02;27.82
70437;BME280;57877;39.750;-104.894;2023-12-29T04:11:35;84311.46;;;0.21;28.39
70437;BME280;57877;39.750;-104.894;2023-12-29T04:14:00;84310.30;;;-0.16;28.47
70437;BME280;57877;39.750;-104.894;2023-12-29T04:16:25;84310.86;;;-0.18;28.75
70437;BME280;57877;39.750;-104.894;2023-12-29T04:18:50;84309.02;;;-0.41;28.76
70437;BME280;57877;39.750;-104.894;2023-12-29T04:21:15;84310.46;;;-0.40;28.71
70437;BME280;57877;39.750;-104.894;2023-12-29T04:23:40;84310.59;;;-0.47;28.55
70437;BME280;57877;39.750;-104.894;2023-12-29T04:26:05;84313.14;;;-0.60;28.90
70437;BME280;57877;39.750;-104.894;2023-12-29T04:28:30;84316.88;;;-0.37;29.10
70437;BME280;57877;39.750;-104.894;2023-12-29T04:30:55;84314.21;;;-0.72;29.14
70437;BME280;57877;39.750;-104.894;2023-12-29T04:33:20;84310.16;;;-0.76;29.48
70437;BME280;57877;39.750;-104.894;2023-12-29T04:35:45;84309.76;;;-1.18;29.07
70437;BME280;57877;39.750;-104.894;2023-12-29T04:38:10;84308.17;;;-0.73;29.02
70437;BME280;57877;39.750;-104.894;2023-12-29T04:40:36;84309.61;;;-0.74;28.67
70437;BME280;57877;39.750;-104.894;2023-12-29T04:43:01;84308.50;;;-0.87;28.47
70437;BME280;57877;39.750;-104.894;2023-12-29T04:45:26;84310.87;;;-0.84;28.43
70437;BME280;57877;39.750;-104.894;2023-12-29T04:47:51;84310.99;;;-0.81;28.31
70437;BME280;57877;39.750;-104.894;2023-12-29T04:50:16;84313.09;;;-0.56;28.21
70437;BME280;57877;39.750;-104.894;2023-12-29T04:52:41;84315.57;;;-0.46;28.27
70437;BME280;57877;39.750;-104.894;2023-12-29T04:55:07;84317.08;;;-0.98;28.23
70437;BME280;57877;39.750;-104.894;2023-12-29T04:57:31;84318.76;;;-1.18;28.29
70437;BME280;57877;39.750;-104.894;2023-12-29T04:59:56;84320.59;;;-0.85;28.54
70437;BME280;57877;39.750;-104.894;2023-12-29T05:02:21;84322.38;;;-1.20;28.35
70437;BME280;57877;39.750;-104.894;2023-12-29T05:04:46;84319.82;;;-0.99;28.38
70437;BME280;57877;39.750;-104.894;2023-12-29T05:07:12;84317.23;;;-1.63;28.73
70437;BME280;57877;39.750;-104.894;2023-12-29T05:09:36;84310.76;;;-1.09;28.27
70437;BME280;57877;39.750;-104.894;2023-12-29T05:12:02;84310.52;;;-1.33;28.37
70437;BME280;57877;39.750;-104.894;2023-12-29T05:14:27;84313.26;;;-1.20;28.36
70437;BME280;57877;39.750;-104.894;2023-12-29T05:16:52;84315.91;;;-1.31;28.75
70437;BME280;57877;39.750;-104.894;2023-12-29T05:19:17;84319.66;;;-1.31;28.07
70437;BME280;57877;39.750;-104.894;2023-12-29T05:21:42;84313.97;;;-1.43;28.37
70437;BME280;57877;39.750;-104.894;2023-12-29T05:24:07;84318.58;;;-1.56;28.50
70437;BME280;57877;39.750;-104.894;2023-12-29T05:26:32;84321.99;;;-1.24;28.30
70437;BME280;57877;39.750;-104.894;2023-12-29T05:28:57;84317.01;;;-1.25;27.86
70437;BME280;57877;39.750;-104.894;2023-12-29T05:31:22;84312.14;;;-1.42;27.69
70437;BME280;57877;39.750;-104.894;2023-12-29T05:33:47;84313.55;;;-1.66;28.20
70437;BME280;57877;39.750;-104.894;2023-12-29T05:36:12;84311.94;;;-1.78;28.36
70437;BME280;57877;39.750;-104.894;2023-12-29T05:38:38;84315.61;;;-1.68;28.22
70437;BME280;57877;39.750;-104.894;2023-12-29T05:41:03;84313.07;;;-1.44;28.12
70437;BME280;57877;39.750;-104.894;2023-12-29T05:43:28;84311.65;;;-1.59;28.22
70437;BME280;57877;39.750;-104.894;2023-12-29T05:45:53;84312.04;;;-1.53;28.25
70437;BME280;57877;39.750;-104.894;2023-12-29T05:48:18;84308.84;;;-1.91;28.96
70437;BME280;57877;39.750;-104.894;2023-12-29T05:50:43;84308.81;;;-2.10;28.77
70437;BME280;57877;39.750;-104.894;2023-12-29T05:53:08;84308.90;;;-1.76;28.23
70437;BME280;57877;39.750;-104.894;2023-12-29T05:55:33;84303.20;;;-1.88;28.58
70437;BME280;57877;39.750;-104.894;2023-12-29T05:57:58;84306.64;;;-1.66;28.05
70437;BME280;57877;39.750;-104.894;2023-12-29T06:00:23;84304.08;;;-1.82;28.06
70437;BME280;57877;39.750;-104.894;2023-12-29T06:02:48;84306.49;;;-2.41;28.81
70437;BME280;57877;39.750;-104.894;2023-12-29T06:05:15;84312.47;;;-1.97;28.21
70437;BME280;57877;39.750;-104.894;2023-12-29T06:07:39;84302.25;;;-2.29;28.63
70437;BME280;57877;39.750;-104.894;2023-12-29T06:10:04;84300.43;;;-2.50;29.30
70437;BME280;57877;39.750;-104.894;2023-12-29T06:12:29;84306.14;;;-1.92;28.72
70437;BME280;57877;39.750;-104.894;2023-12-29T06:14:54;84302.55;;;-2.60;29.32
70437;BME280;57877;39.750;-104.894;2023-12-29T06:17:19;84302.79;;;-2.72;29.52
70437;BME280;57877;39.750;-104.894;2023-12-29T06:19:44;84306.92;;;-2.12;28.92
70437;BME280;57877;39.750;-104.894;2023-12-29T06:22:09;84306.71;;;-2.33;29.16
70437;BME280;57877;39.750;-104.894;2023-12-29T06:24:34;84309.74;;;-2.26;29.10
70437;BME280;57877;39.750;-104.894;2023-12-29T06:26:59;84311.13;;;-2.23;29.02
70437;BME280;57877;39.750;-104.894;2023-12-29T06:29:25;84310.19;;;-2.16;28.75
70437;BME280;57877;39.750;-104.894;2023-12-29T06:31:50;84309.18;;;-2.20;28.66
70437;BME280;57877;39.750;-104.894;2023-12-29T06:34:15;84309.15;;;-2.08;28.95
70437;BME280;57877;39.750;-104.894;2023-12-29T06:36:40;84308.57;;;-1.82;28.40
70437;BME280;57877;39.750;-104.894;2023-12-29T06:39:05;84307.02;;;-2.20;28.72
70437;BME280;57877;39.750;-104.894;2023-12-29T06:41:30;84306.70;;;-2.23;28.98
70437;BME280;57877;39.750;-104.894;2023-12-29T06:43:55;84307.79;;;-1.66;28.37
70437;BME280;57877;39.750;-104.894;2023-12-29T06:46:20;84305.80;;;-1.83;28.35
70437;BME280;57877;39.750;-104.894;2023-12-29T06:48:45;84306.56;;;-1.92;28.57
70437;BME280;57877;39.750;-104.894;2023-12-29T06:51:16;84306.67;;;-2.22;28.21
70437;BME280;57877;39.750;-104.894;2023-12-29T06:53:35;84304.10;;;-1.86;28.21
70437;BME280;57877;39.750;-104.894;2023-12-29T06:56:01;84301.93;;;-2.20;28.81
70437;BME280;57877;39.750;-104.894;2023-12-29T06:58:26;84302.36;;;-1.94;28.56
70437;BME280;57877;39.750;-104.894;2023-12-29T07:00:51;84302.48;;;-2.20;28.08
70437;BME280;57877;39.750;-104.894;2023-12-29T07:03:16;84304.68;;;-2.02;27.90
70437;BME280;57877;39.750;-104.894;2023-12-29T07:05:41;84306.13;;;-1.74;28.11
70437;BME280;57877;39.750;-104.894;2023-12-29T07:08:06;84299.15;;;-2.09;28.34
70437;BME280;57877;39.750;-104.894;2023-12-29T07:10:31;84301.31;;;-2.24;28.53
70437;BME280;57877;39.750;-104.894;2023-12-29T07:12:56;84299.11;;;-2.35;28.52
70437;BME280;57877;39.750;-104.894;2023-12-29T07:15:21;84302.53;;;-2.56;28.65
70437;BME280;57877;39.750;-104.894;2023-12-29T07:17:46;84300.47;;;-2.77;28.69
70437;BME280;57877;39.750;-104.894;2023-12-29T07:20:12;84303.59;;;-3.37;29.79
70437;BME280;57877;39.750;-104.894;2023-12-29T07:22:37;84302.27;;;-2.99;28.94
70437;BME280;57877;39.750;-104.894;2023-12-29T07:25:02;84302.71;;;-2.49;28.65
70437;BME280;57877;39.750;-104.894;2023-12-29T07:27:27;84301.42;;;-2.01;28.02
70437;BME280;57877;39.750;-104.894;2023-12-29T07:29:52;84302.27;;;-1.87;27.79
70437;BME280;57877;39.750;-104.894;2023-12-29T07:32:17;84301.30;;;-1.59;27.60
70437;BME280;57877;39.750;-104.894;2023-12-29T07:34:42;84299.51;;;-2.18;27.99
70437;BME280;57877;39.750;-104.894;2023-12-29T07:37:07;84300.89;;;-1.91;28.00
70437;BME280;57877;39.750;-104.894;2023-12-29T07:39:35;84303.59;;;-2.20;27.94
70437;BME280;57877;39.750;-104.894;2023-12-29T07:41:58;84308.06;;;-2.30;28.05
70437;BME280;57877;39.750;-104.894;2023-12-29T07:44:23;84308.69;;;-1.88;27.53
70437;BME280;57877;39.750;-104.894;2023-12-29T07:46:48;84309.07;;;-1.73;27.37
70437;BME280;57877;39.750;-104.894;2023-12-29T07:49:13;84307.24;;;-1.63;27.22
70437;BME280;57877;39.750;-104.894;2023-12-29T07:51:40;84309.64;;;-2.20;27.31
70437;BME280;57877;39.750;-104.894;2023-12-29T07:54:03;84306.68;;;-2.53;27.84
70437;BME280;57877;39.750;-104.894;2023-12-29T07:56:28;84307.78;;;-2.08;27.84
70437;BME280;57877;39.750;-104.894;2023-12-29T07:58:53;84310.46;;;-2.23;27.74
70437;BME280;57877;39.750;-104.894;2023-12-29T08:01:18;84314.02;;;-1.81;27.41
70437;BME280;57877;39.750;-104.894;2023-12-29T08:03:44;84313.10;;;-1.67;27.20
70437;BME280;57877;39.750;-104.894;2023-12-29T08:06:09;84316.14;;;-2.03;27.48
70437;BME280;57877;39.750;-104.894;2023-12-29T08:08:34;84318.05;;;-1.74;27.21
70437;BME280;57877;39.750;-104.894;2023-12-29T08:10:59;84319.70;;;-2.04;27.42
70437;BME280;57877;39.750;-104.894;2023-12-29T08:13:24;84322.82;;;-2.03;27.38
70437;BME280;57877;39.750;-104.894;2023-12-29T08:15:49;84327.53;;;-2.17;27.45
70437;BME280;57877;39.750;-104.894;2023-12-29T08:18:14;84327.42;;;-2.35;27.93
70437;BME280;57877;39.750;-104.894;2023-12-29T08:20:40;84327.16;;;-2.41;28.18
70437;BME280;57877;39.750;-104.894;2023-12-29T08:23:05;84327.33;;;-2.60;28.12
70437;BME280;57877;39.750;-104.894;2023-12-29T08:25:30;84327.02;;;-2.78;27.88
70437;BME280;57877;39.750;-104.894;2023-12-29T08:27:56;84332.13;;;-2.92;28.20
70437;BME280;57877;39.750;-104.894;2023-12-29T08:30:20;84331.91;;;-2.30;27.53
70437;BME280;57877;39.750;-104.894;2023-12-29T08:32:45;84331.45;;;-2.24;27.60
70437;BME280;57877;39.750;-104.894;2023-12-29T08:35:10;84330.12;;;-2.08;27.24
70437;BME280;57877;39.750;-104.894;2023-12-29T08:37:35;84329.25;;;-2.38;27.26
70437;BME280;57877;39.750;-104.894;2023-12-29T08:40:00;84328.90;;;-2.39;27.19
70437;BME280;57877;39.750;-104.894;2023-12-29T08:42:26;84329.31;;;-1.94;26.86
70437;BME280;57877;39.750;-104.894;2023-12-29T08:44:51;84330.65;;;-2.50;27.39
70437;BME280;57877;39.750;-104.894;2023-12-29T08:47:16;84330.40;;;-2.34;27.10
70437;BME280;57877;39.750;-104.894;2023-12-29T08:49:41;84329.57;;;-2.28;27.20
70437;BME280;57877;39.750;-104.894;2023-12-29T08:52:06;84327.70;;;-2.56;27.12
70437;BME280;57877;39.750;-104.894;2023-12-29T08:54:31;84326.53;;;-2.24;27.02
70437;BME280;57877;39.750;-104.894;2023-12-29T08:56:56;84326.43;;;-2.45;26.84
70437;BME280;57877;39.750;-104.894;2023-12-29T08:59:22;84325.59;;;-2.06;26.69
70437;BME280;57877;39.750;-104.894;2023-12-29T09:01:47;84325.03;;;-2.35;26.71
70437;BME280;57877;39.750;-104.894;2023-12-29T09:04:12;84327.93;;;-1.97;26.58
70437;BME280;57877;39.750;-104.894;2023-12-29T09:06:37;84329.46;;;-2.49;26.75
70437;BME280;57877;39.750;-104.894;2023-12-29T09:09:02;84332.95;;;-2.15;26.66
70437;BME280;57877;39.750;-104.894;2023-12-29T09:11:27;84333.91;;;-2.46;26.72
70437;BME280;57877;39.750;-104.894;2023-12-29T09:13:53;84340.03;;;-2.81;27.14
70437;BME280;57877;39.750;-104.894;2023-12-29T09:16:18;84342.11;;;-2.89;27.19
70437;BME280;57877;39.750;-104.894;2023-12-29T09:18:43;84336.40;;;-2.49;26.91
70437;BME280;57877;39.750;-104.894;2023-12-29T09:21:08;84337.58;;;-2.56;27.25
70437;BME280;57877;39.750;-104.894;2023-12-29T09:23:33;84333.96;;;-2.29;27.07
70437;BME280;57877;39.750;-104.894;2023-12-29T09:25:59;84337.01;;;-2.84;27.54
70437;BME280;57877;39.750;-104.894;2023-12-29T09:28:24;84335.13;;;-2.70;27.74
70437;BME280;57877;39.750;-104.894;2023-12-29T09:30:49;84334.34;;;-2.52;27.39
70437;BME280;57877;39.750;-104.894;2023-12-29T09:33:14;84339.60;;;-2.86;27.63
70437;BME280;57877;39.750;-104.894;2023-12-29T09:35:39;84341.59;;;-2.79;27.54
70437;BME280;57877;39.750;-104.894;2023-12-29T09:38:04;84341.27;;;-2.95;27.57
70437;BME280;57877;39.750;-104.894;2023-12-29T09:40:29;84342.94;;;-2.95;27.22
70437;BME280;57877;39.750;-104.894;2023-12-29T09:42:55;84342.13;;;-2.73;27.57
70437;BME280;57877;39.750;-104.894;2023-12-29T09:45:23;84342.90;;;-2.47;27.22
70437;BME280;57877;39.750;-104.894;2023-12-29T09:47:45;84343.01;;;-2.73;27.52
70437;BME280;57877;39.750;-104.894;2023-12-29T09:50:11;84344.47;;;-2.92;27.65
70437;BME280;57877;39.750;-104.894;2023-12-29T09:52:36;84344.14;;;-2.96;27.64
70437;BME280;57877;39.750;-104.894;2023-12-29T09:55:00;84341.03;;;-2.87;27.35
70437;BME280;57877;39.750;-104.894;2023-12-29T09:57:26;84341.80;;;-2.90;27.65
70437;BME280;57877;39.750;-104.894;2023-12-29T09:59:51;84342.97;;;-2.62;27.43
70437;BME280;57877;39.750;-104.894;2023-12-29T10:02:16;84343.56;;;-2.52;27.36
70437;BME280;57877;39.750;-104.894;2023-12-29T10:04:41;84341.34;;;-2.46;27.21
70437;BME280;57877;39.750;-104.894;2023-12-29T10:07:06;84341.85;;;-2.83;27.48
70437;BME280;57877;39.750;-104.894;2023-12-29T10:09:33;84343.76;;;-2.83;27.55
70437;BME280;57877;39.750;-104.894;2023-12-29T10:11:57;84344.22;;;-3.03;27.85
70437;BME280;57877;39.750;-104.894;2023-12-29T10:14:24;84340.77;;;-2.48;27.31
70437;BME280;57877;39.750;-104.894;2023-12-29T10:16:53;84342.32;;;-2.86;27.42
70437;BME280;57877;39.750;-104.894;2023-12-29T10:19:19;84343.02;;;-3.12;27.52
70437;BME280;57877;39.750;-104.894;2023-12-29T10:21:46;84346.34;;;-3.01;27.37
70437;BME280;57877;39.750;-104.894;2023-12-29T10:24:05;84345.21;;;-2.44;27.21
70437;BME280;57877;39.750;-104.894;2023-12-29T10:26:28;84347.70;;;-2.87;27.23
70437;BME280;57877;39.750;-104.894;2023-12-29T10:28:53;84346.27;;;-3.24;27.54
70437;BME280;57877;39.750;-104.894;2023-12-29T10:31:18;84348.78;;;-2.60;27.25
70437;BME280;57877;39.750;-104.894;2023-12-29T10:33:43;84348.26;;;-2.66;27.22
70437;BME280;57877;39.750;-104.894;2023-12-29T10:36:08;84348.75;;;-2.81;27.33
70437;BME280;57877;39.750;-104.894;2023-12-29T10:38:33;84347.97;;;-2.98;27.80
70437;BME280;57877;39.750;-104.894;2023-12-29T10:43:24;84349.18;;;-2.87;27.85
70437;BME280;57877;39.750;-104.894;2023-12-29T10:45:48;84344.06;;;-3.37;28.40
70437;BME280;57877;39.750;-104.894;2023-12-29T10:48:21;84343.40;;;-3.73;28.49
70437;BME280;57877;39.750;-104.894;2023-12-29T10:50:43;84345.22;;;-3.57;28.36
70437;BME280;57877;39.750;-104.894;2023-12-29T10:53:10;84346.30;;;-3.47;28.79
70437;BME280;57877;39.750;-104.894;2023-12-29T10:55:32;84342.03;;;-3.58;28.31
70437;BME280;57877;39.750;-104.894;2023-12-29T10:57:59;84337.69;;;-3.74;28.22
70437;BME280;57877;39.750;-104.894;2023-12-29T11:00:24;84339.34;;;-3.63;28.12
70437;BME280;57877;39.750;-104.894;2023-12-29T11:02:53;84342.13;;;-3.52;27.98
70437;BME280;57877;39.750;-104.894;2023-12-29T11:05:09;84342.39;;;-2.92;27.40
70437;BME280;57877;39.750;-104.894;2023-12-29T11:07:36;84344.64;;;-3.07;27.34
70437;BME280;57877;39.750;-104.894;2023-12-29T11:10:02;84343.05;;;-3.32;27.60
70437;BME280;57877;39.750;-104.894;2023-12-29T11:12:25;84337.66;;;-3.32;27.62
70437;BME280;57877;39.750;-104.894;2023-12-29T11:14:50;84338.47;;;-2.90;27.21
70437;BME280;57877;39.750;-104.894;2023-12-29T11:17:16;84338.39;;;-3.19;27.60
70437;BME280;57877;39.750;-104.894;2023-12-29T11:19:40;84338.40;;;-3.24;27.40
70437;BME280;57877;39.750;-104.894;2023-12-29T11:22:06;84336.59;;;-3.30;27.59
70437;BME280;57877;39.750;-104.894;2023-12-29T11:24:30;84340.33;;;-3.20;27.32
70437;BME280;57877;39.750;-104.894;2023-12-29T11:26:56;84343.91;;;-2.84;27.14
70437;BME280;57877;39.750;-104.894;2023-12-29T11:29:21;84343.64;;;-3.03;27.20
70437;BME280;57877;39.750;-104.894;2023-12-29T11:31:46;84343.70;;;-2.86;26.94
70437;BME280;57877;39.750;-104.894;2023-12-29T11:34:14;84341.39;;;-3.02;27.23
70437;BME280;57877;39.750;-104.894;2023-12-29T11:36:40;84341.14;;;-3.15;27.27
70437;BME280;57877;39.750;-104.894;2023-12-29T11:39:06;84343.66;;;-3.06;27.06
70437;BME280;57877;39.750;-104.894;2023-12-29T11:41:33;84341.94;;;-2.91;27.04
70437;BME280;57877;39.750;-104.894;2023-12-29T11:43:56;84340.09;;;-3.14;27.09
70437;BME280;57877;39.750;-104.894;2023-12-29T11:53:32;84343.41;;;-3.46;27.44
70437;BME280;57877;39.750;-104.894;2023-12-29T11:55:56;84347.40;;;-3.42;27.41
70437;BME280;57877;39.750;-104.894;2023-12-29T11:58:26;84347.36;;;-3.17;27.66
70437;BME280;57877;39.750;-104.894;2023-12-29T12:00:47;84354.84;;;-3.60;27.90
70437;BME280;57877;39.750;-104.894;2023-12-29T12:03:17;84352.85;;;-3.64;28.07
70437;BME280;57877;39.750;-104.894;2023-12-29T12:05:45;84354.90;;;-4.11;28.34
70437;BME280;57877;39.750;-104.894;2023-12-29T12:08:02;84357.32;;;-3.48;28.08
70437;BME280;57877;39.750;-104.894;2023-12-29T12:10:31;84358.41;;;-3.33;27.60
70437;BME280;57877;39.750;-104.894;2023-12-29T12:12:52;84364.32;;;-3.32;27.50
70437;BME280;57877;39.750;-104.894;2023-12-29T12:17:42;84367.59;;;-3.75;27.70
70437;BME280;57877;39.750;-104.894;2023-12-29T12:20:08;84369.99;;;-3.63;27.36
70437;BME280;57877;39.750;-104.894;2023-12-29T12:22:33;84370.19;;;-3.45;27.37
70437;BME280;57877;39.750;-104.894;2023-12-29T12:24:58;84372.14;;;-3.45;27.44
70437;BME280;57877;39.750;-104.894;2023-12-29T12:27:23;84374.73;;;-3.09;26.99
70437;BME280;57877;39.750;-104.894;2023-12-29T12:29:49;84381.23;;;-3.25;27.35
70437;BME280;57877;39.750;-104.894;2023-12-29T12:32:16;84380.49;;;-2.94;26.86